sensor_id;sensor_type;location;lat;lon;timestamp;P1;durP1;ratioP1;P2;durP2;ratioP2
2173;SDS011;1093;51.424;11.764;2023-08-07T00:01:44;2.60;;;2.40;;
2173;SDS011;1093;51.424;11.764;2023-08-07T00:04:11;2.70;;;2.30;;
2173;SDS011;1093;51.424;11.764;2023-08-07T00:06:38;3.33;;;2.30;;
2173;SDS011;1093;51.424;11.764;2023-08-07T00:09:06;2.73;;;2.27;;
2173;SDS011;1093;51.424;11.764;2023-08-07T00:14:48;6.03;;;2.17;;
2173;SDS011;1093;51.424;11.764;2023-08-07T00:17:16;2.63;;;2.23;;
2173;SDS011;1093;51.424;11.764;2023-08-07T00:19:48;5.37;;;2.47;;
2173;SDS011;1093;51.424;11.764;2023-08-07T00:22:33;2.67;;;2.47;;
2173;SDS011;1093;51.424;11.764;2023-08-07T00:25:02;2.40;;;2.20;;
2173;SDS011;1093;51.424;11.764;2023-08-07T00:27:30;2.60;;;2.40;;
2173;SDS011;1093;51.424;11.764;2023-08-07T00:30:12;3.43;;;2.77;;
2173;SDS011;1093;51.424;11.764;2023-08-07T00:32:38;6.93;;;2.70;;
2173;SDS011;1093;51.424;11.764;2023-08-07T00:35:06;2.70;;;2.50;;
2173;SDS011;1093;51.424;11.764;2023-08-07T00:37:34;4.53;;;3.00;;
2173;SDS011;1093;51.424;11.764;2023-08-07T00:40:01;3.70;;;2.43;;
2173;SDS011;1093;51.424;11.764;2023-08-07T00:42:32;2.77;;;2.57;;
2173;SDS011;1093;51.424;11.764;2023-08-07T00:45:04;3.10;;;2.80;;
2173;SDS011;1093;51.424;11.764;2023-08-07T00:47:32;3.30;;;3.00;;
2173;SDS011;1093;51.424;11.764;2023-08-07T00:50:00;2.93;;;2.43;;
2173;SDS011;1093;51.424;11.764;2023-08-07T00:52:30;3.40;;;3.10;;
2173;SDS011;1093;51.424;11.764;2023-08-07T00:54:58;3.70;;;2.80;;
2173;SDS011;1093;51.424;11.764;2023-08-07T00:57:25;5.43;;;3.67;;
2173;SDS011;1093;51.424;11.764;2023-08-07T00:59:52;3.83;;;3.00;;
2173;SDS011;1093;51.424;11.764;2023-08-07T01:02:21;5.80;;;3.10;;
2173;SDS011;1093;51.424;11.764;2023-08-07T01:04:48;3.83;;;2.90;;
2173;SDS011;1093;51.424;11.764;2023-08-07T01:07:16;3.23;;;2.70;;
2173;SDS011;1093;51.424;11.764;2023-08-07T01:09:43;3.20;;;2.57;;
2173;SDS011;1093;51.424;11.764;2023-08-07T01:12:13;3.03;;;2.83;;
2173;SDS011;1093;51.424;11.764;2023-08-07T01:14:47;3.40;;;3.10;;
2173;SDS011;1093;51.424;11.764;2023-08-07T01:17:21;3.57;;;3.27;;
2173;SDS011;1093;51.424;11.764;2023-08-07T01:19:49;4.90;;;2.23;;
2173;SDS011;1093;51.424;11.764;2023-08-07T01:22:21;2.90;;;2.70;;
2173;SDS011;1093;51.424;11.764;2023-08-07T01:24:49;3.87;;;3.53;;
2173;SDS011;1093;51.424;11.764;2023-08-07T01:27:24;5.77;;;3.90;;
2173;SDS011;1093;51.424;11.764;2023-08-07T01:30:06;6.40;;;3.00;;
2173;SDS011;1093;51.424;11.764;2023-08-07T01:32:39;5.40;;;4.17;;
2173;SDS011;1093;51.424;11.764;2023-08-07T01:35:14;6.20;;;3.33;;
2173;SDS011;1093;51.424;11.764;2023-08-07T01:37:45;4.73;;;2.80;;
2173;SDS011;1093;51.424;11.764;2023-08-07T01:40:14;3.90;;;3.60;;
2173;SDS011;1093;51.424;11.764;2023-08-07T01:42:42;5.60;;;5.10;;
2173;SDS011;1093;51.424;11.764;2023-08-07T01:45:10;3.73;;;3.10;;
2173;SDS011;1093;51.424;11.764;2023-08-07T01:50:41;4.50;;;3.80;;
2173;SDS011;1093;51.424;11.764;2023-08-07T01:53:10;4.13;;;3.73;;
2173;SDS011;1093;51.424;11.764;2023-08-07T01:55:37;5.03;;;3.67;;
2173;SDS011;1093;51.424;11.764;2023-08-07T01:58:05;4.17;;;3.47;;
2173;SDS011;1093;51.424;11.764;2023-08-07T02:00:32;3.70;;;3.40;;
2173;SDS011;1093;51.424;11.764;2023-08-07T02:03:06;3.40;;;3.10;;
2173;SDS011;1093;51.424;11.764;2023-08-07T02:05:35;3.30;;;3.00;;
2173;SDS011;1093;51.424;11.764;2023-08-07T02:08:03;3.87;;;3.10;;
2173;SDS011;1093;51.424;11.764;2023-08-07T02:10:34;3.40;;;3.10;;
2173;SDS011;1093;51.424;11.764;2023-08-07T02:13:02;4.83;;;2.90;;
2173;SDS011;1093;51.424;11.764;2023-08-07T02:15:28;2.90;;;2.70;;
2173;SDS011;1093;51.424;11.764;2023-08-07T02:17:57;4.20;;;2.60;;
2173;SDS011;1093;51.424;11.764;2023-08-07T02:20:25;2.57;;;2.37;;
2173;SDS011;1093;51.424;11.764;2023-08-07T02:22:52;3.47;;;3.17;;
2173;SDS011;1093;51.424;11.764;2023-08-07T02:25:19;4.60;;;2.53;;
2173;SDS011;1093;51.424;11.764;2023-08-07T02:27:50;2.80;;;2.13;;
2173;SDS011;1093;51.424;11.764;2023-08-07T02:30:17;3.30;;;2.87;;
2173;SDS011;1093;51.424;11.764;2023-08-07T02:32:44;5.10;;;3.67;;
2173;SDS011;1093;51.424;11.764;2023-08-07T02:35:11;3.03;;;2.73;;
2173;SDS011;1093;51.424;11.764;2023-08-07T02:37:38;5.47;;;2.97;;
2173;SDS011;1093;51.424;11.764;2023-08-07T02:40:05;5.47;;;3.17;;
2173;SDS011;1093;51.424;11.764;2023-08-07T02:42:33;4.43;;;3.33;;
2173;SDS011;1093;51.424;11.764;2023-08-07T02:45:01;6.73;;;3.80;;
2173;SDS011;1093;51.424;11.764;2023-08-07T02:47:28;4.90;;;3.53;;
2173;SDS011;1093;51.424;11.764;2023-08-07T02:49:56;7.27;;;4.03;;
2173;SDS011;1093;51.424;11.764;2023-08-07T02:52:24;7.10;;;4.20;;
2173;SDS011;1093;51.424;11.764;2023-08-07T02:54:54;5.40;;;4.57;;
2173;SDS011;1093;51.424;11.764;2023-08-07T02:57:20;8.20;;;4.70;;
2173;SDS011;1093;51.424;11.764;2023-08-07T02:59:48;6.27;;;5.40;;
2173;SDS011;1093;51.424;11.764;2023-08-07T03:02:18;6.70;;;4.90;;
2173;SDS011;1093;51.424;11.764;2023-08-07T03:04:45;8.73;;;4.63;;
2173;SDS011;1093;51.424;11.764;2023-08-07T03:07:11;6.13;;;5.00;;
2173;SDS011;1093;51.424;11.764;2023-08-07T03:09:38;9.80;;;4.20;;
2173;SDS011;1093;51.424;11.764;2023-08-07T03:12:05;5.93;;;4.30;;
2173;SDS011;1093;51.424;11.764;2023-08-07T03:14:34;8.00;;;3.97;;
2173;SDS011;1093;51.424;11.764;2023-08-07T03:17:01;8.10;;;3.93;;
2173;SDS011;1093;51.424;11.764;2023-08-07T03:19:29;4.13;;;2.80;;
2173;SDS011;1093;51.424;11.764;2023-08-07T03:21:56;3.60;;;3.00;;
2173;SDS011;1093;51.424;11.764;2023-08-07T03:24:24;5.57;;;2.80;;
2173;SDS011;1093;51.424;11.764;2023-08-07T03:26:51;2.70;;;1.90;;
2173;SDS011;1093;51.424;11.764;2023-08-07T03:29:17;4.10;;;2.70;;
2173;SDS011;1093;51.424;11.764;2023-08-07T03:31:44;6.20;;;2.17;;
2173;SDS011;1093;51.424;11.764;2023-08-07T03:34:11;2.20;;;1.80;;
2173;SDS011;1093;51.424;11.764;2023-08-07T03:36:39;3.90;;;2.00;;
2173;SDS011;1093;51.424;11.764;2023-08-07T03:39:09;5.13;;;2.43;;
2173;SDS011;1093;51.424;11.764;2023-08-07T03:41:39;3.17;;;1.90;;
2173;SDS011;1093;51.424;11.764;2023-08-07T03:44:07;2.60;;;1.80;;
2173;SDS011;1093;51.424;11.764;2023-08-07T03:46:36;4.37;;;2.37;;
2173;SDS011;1093;51.424;11.764;2023-08-07T03:49:06;2.17;;;1.90;;
2173;SDS011;1093;51.424;11.764;2023-08-07T03:51:35;4.80;;;2.30;;
2173;SDS011;1093;51.424;11.764;2023-08-07T03:54:05;3.90;;;2.10;;
2173;SDS011;1093;51.424;11.764;2023-08-07T03:56:32;3.87;;;2.50;;
2173;SDS011;1093;51.424;11.764;2023-08-07T03:59:01;5.33;;;2.50;;
2173;SDS011;1093;51.424;11.764;2023-08-07T04:01:28;3.00;;;1.90;;
2173;SDS011;1093;51.424;11.764;2023-08-07T04:03:55;3.40;;;2.27;;
2173;SDS011;1093;51.424;11.764;2023-08-07T04:06:21;4.07;;;2.50;;
2173;SDS011;1093;51.424;11.764;2023-08-07T04:08:48;3.20;;;2.20;;
2173;SDS011;1093;51.424;11.764;2023-08-07T04:11:16;2.30;;;1.53;;
2173;SDS011;1093;51.424;11.764;2023-08-07T04:13:43;2.93;;;2.40;;
2173;SDS011;1093;51.424;11.764;2023-08-07T04:16:10;2.57;;;1.87;;
2173;SDS011;1093;51.424;11.764;2023-08-07T04:18:37;3.00;;;1.73;;
2173;SDS011;1093;51.424;11.764;2023-08-07T04:21:04;2.53;;;2.33;;
2173;SDS011;1093;51.424;11.764;2023-08-07T04:23:31;2.47;;;1.90;;
2173;SDS011;1093;51.424;11.764;2023-08-07T04:25:59;3.47;;;2.13;;
2173;SDS011;1093;51.424;11.764;2023-08-07T04:28:28;3.20;;;2.10;;
2173;SDS011;1093;51.424;11.764;2023-08-07T04:30:55;3.27;;;2.90;;
2173;SDS011;1093;51.424;11.764;2023-08-07T04:33:22;5.03;;;2.50;;
2173;SDS011;1093;51.424;11.764;2023-08-07T04:35:50;5.23;;;2.50;;
2173;SDS011;1093;51.424;11.764;2023-08-07T04:38:17;3.70;;;2.87;;
2173;SDS011;1093;51.424;11.764;2023-08-07T04:40:46;2.53;;;2.33;;
2173;SDS011;1093;51.424;11.764;2023-08-07T04:43:14;4.63;;;2.87;;
2173;SDS011;1093;51.424;11.764;2023-08-07T04:45:42;2.80;;;2.60;;
2173;SDS011;1093;51.424;11.764;2023-08-07T04:48:10;3.00;;;2.03;;
2173;SDS011;1093;51.424;11.764;2023-08-07T04:50:37;2.63;;;2.43;;
2173;SDS011;1093;51.424;11.764;2023-08-07T04:53:05;3.03;;;2.63;;
2173;SDS011;1093;51.424;11.764;2023-08-07T04:55:31;5.33;;;2.87;;
2173;SDS011;1093;51.424;11.764;2023-08-07T04:57:58;4.63;;;2.73;;
2173;SDS011;1093;51.424;11.764;2023-08-07T05:00:27;2.53;;;2.23;;
2173;SDS011;1093;51.424;11.764;2023-08-07T05:02:55;3.23;;;2.87;;
2173;SDS011;1093;51.424;11.764;2023-08-07T05:05:22;4.50;;;3.30;;
2173;SDS011;1093;51.424;11.764;2023-08-07T05:07:49;4.00;;;3.40;;
2173;SDS011;1093;51.424;11.764;2023-08-07T05:10:17;7.30;;;5.53;;
2173;SDS011;1093;51.424;11.764;2023-08-07T05:12:44;5.80;;;2.97;;
2173;SDS011;1093;51.424;11.764;2023-08-07T05:15:10;4.63;;;3.50;;
2173;SDS011;1093;51.424;11.764;2023-08-07T05:17:37;8.00;;;4.00;;
2173;SDS011;1093;51.424;11.764;2023-08-07T05:20:07;3.33;;;2.60;;
2173;SDS011;1093;51.424;11.764;2023-08-07T05:22:34;5.20;;;3.10;;
2173;SDS011;1093;51.424;11.764;2023-08-07T05:25:02;4.40;;;3.30;;
2173;SDS011;1093;51.424;11.764;2023-08-07T05:27:30;3.63;;;2.67;;
2173;SDS011;1093;51.424;11.764;2023-08-07T05:29:57;10.40;;;2.50;;
2173;SDS011;1093;51.424;11.764;2023-08-07T05:32:24;3.83;;;2.43;;
2173;SDS011;1093;51.424;11.764;2023-08-07T05:34:50;3.10;;;2.43;;
2173;SDS011;1093;51.424;11.764;2023-08-07T05:37:19;4.87;;;3.33;;
2173;SDS011;1093;51.424;11.764;2023-08-07T05:39:45;2.57;;;2.27;;
2173;SDS011;1093;51.424;11.764;2023-08-07T05:42:13;4.07;;;3.63;;
2173;SDS011;1093;51.424;11.764;2023-08-07T05:44:40;7.37;;;2.60;;
2173;SDS011;1093;51.424;11.764;2023-08-07T05:47:07;8.33;;;3.40;;
2173;SDS011;1093;51.424;11.764;2023-08-07T05:49:34;3.20;;;2.80;;
2173;SDS011;1093;51.424;11.764;2023-08-07T05:52:00;6.17;;;1.97;;
2173;SDS011;1093;51.424;11.764;2023-08-07T05:54:29;2.40;;;2.03;;
2173;SDS011;1093;51.424;11.764;2023-08-07T05:56:56;2.77;;;2.53;;
2173;SDS011;1093;51.424;11.764;2023-08-07T05:59:23;2.57;;;2.37;;
2173;SDS011;1093;51.424;11.764;2023-08-07T06:01:49;6.63;;;2.03;;
2173;SDS011;1093;51.424;11.764;2023-08-07T06:04:17;7.27;;;2.30;;
2173;SDS011;1093;51.424;11.764;2023-08-07T06:06:44;5.43;;;2.10;;
2173;SDS011;1093;51.424;11.764;2023-08-07T06:09:11;5.23;;;2.00;;
2173;SDS011;1093;51.424;11.764;2023-08-07T06:11:41;4.00;;;1.90;;
2173;SDS011;1093;51.424;11.764;2023-08-07T06:14:08;2.07;;;1.90;;
2173;SDS011;1093;51.424;11.764;2023-08-07T06:16:34;3.47;;;1.87;;
2173;SDS011;1093;51.424;11.764;2023-08-07T06:19:01;2.27;;;1.73;;
2173;SDS011;1093;51.424;11.764;2023-08-07T06:21:29;3.80;;;1.70;;
2173;SDS011;1093;51.424;11.764;2023-08-07T06:23:56;9.63;;;1.97;;
2173;SDS011;1093;51.424;11.764;2023-08-07T06:26:23;4.43;;;1.80;;
2173;SDS011;1093;51.424;11.764;2023-08-07T06:28:51;2.27;;;1.20;;
2173;SDS011;1093;51.424;11.764;2023-08-07T06:31:18;2.43;;;1.77;;
2173;SDS011;1093;51.424;11.764;2023-08-07T06:33:45;1.80;;;1.50;;
2173;SDS011;1093;51.424;11.764;2023-08-07T06:36:12;1.80;;;1.43;;
2173;SDS011;1093;51.424;11.764;2023-08-07T06:38:39;2.70;;;1.20;;
2173;SDS011;1093;51.424;11.764;2023-08-07T06:41:06;1.80;;;1.37;;
2173;SDS011;1093;51.424;11.764;2023-08-07T06:43:32;2.63;;;1.87;;
2173;SDS011;1093;51.424;11.764;2023-08-07T06:46:01;2.00;;;1.80;;
2173;SDS011;1093;51.424;11.764;2023-08-07T06:48:28;13.57;;;2.03;;
2173;SDS011;1093;51.424;11.764;2023-08-07T06:50:55;7.87;;;1.60;;
2173;SDS011;1093;51.424;11.764;2023-08-07T06:53:22;1.77;;;1.40;;
2173;SDS011;1093;51.424;11.764;2023-08-07T06:55:49;2.20;;;1.70;;
2173;SDS011;1093;51.424;11.764;2023-08-07T06:58:16;1.63;;;1.43;;
2173;SDS011;1093;51.424;11.764;2023-08-07T07:00:43;2.10;;;1.90;;
2173;SDS011;1093;51.424;11.764;2023-08-07T07:03:12;1.60;;;1.40;;
2173;SDS011;1093;51.424;11.764;2023-08-07T07:05:40;2.60;;;1.33;;
2173;SDS011;1093;51.424;11.764;2023-08-07T07:08:08;2.00;;;1.60;;
2173;SDS011;1093;51.424;11.764;2023-08-07T07:10:34;2.90;;;1.60;;
2173;SDS011;1093;51.424;11.764;2023-08-07T07:13:01;5.60;;;1.90;;
2173;SDS011;1093;51.424;11.764;2023-08-07T07:15:29;7.90;;;1.80;;
2173;SDS011;1093;51.424;11.764;2023-08-07T07:17:57;1.63;;;1.27;;
2173;SDS011;1093;51.424;11.764;2023-08-07T07:20:26;2.30;;;1.77;;
2173;SDS011;1093;51.424;11.764;2023-08-07T07:22:52;1.43;;;1.33;;
2173;SDS011;1093;51.424;11.764;2023-08-07T07:25:19;3.13;;;1.67;;
2173;SDS011;1093;51.424;11.764;2023-08-07T07:27:46;5.53;;;1.57;;
2173;SDS011;1093;51.424;11.764;2023-08-07T07:30:13;6.30;;;1.53;;
2173;SDS011;1093;51.424;11.764;2023-08-07T07:32:40;3.20;;;1.40;;
2173;SDS011;1093;51.424;11.764;2023-08-07T07:35:07;3.90;;;1.30;;
2173;SDS011;1093;51.424;11.764;2023-08-07T07:37:35;3.90;;;1.77;;
2173;SDS011;1093;51.424;11.764;2023-08-07T07:40:03;1.47;;;1.30;;
2173;SDS011;1093;51.424;11.764;2023-08-07T07:42:30;3.17;;;1.63;;
2173;SDS011;1093;51.424;11.764;2023-08-07T07:44:57;1.57;;;1.47;;
2173;SDS011;1093;51.424;11.764;2023-08-07T07:47:23;3.10;;;1.43;;
2173;SDS011;1093;51.424;11.764;2023-08-07T07:49:55;3.00;;;2.40;;
2173;SDS011;1093;51.424;11.764;2023-08-07T07:52:31;3.87;;;1.50;;
2173;SDS011;1093;51.424;11.764;2023-08-07T07:54:59;4.30;;;2.40;;
2173;SDS011;1093;51.424;11.764;2023-08-07T07:57:26;3.00;;;2.10;;
2173;SDS011;1093;51.424;11.764;2023-08-07T07:59:53;3.67;;;1.60;;
2173;SDS011;1093;51.424;11.764;2023-08-07T08:02:20;5.53;;;1.60;;
2173;SDS011;1093;51.424;11.764;2023-08-07T08:04:48;2.10;;;1.57;;
2173;SDS011;1093;51.424;11.764;2023-08-07T08:07:14;1.73;;;1.43;;
2173;SDS011;1093;51.424;11.764;2023-08-07T08:09:41;1.83;;;1.40;;
2173;SDS011;1093;51.424;11.764;2023-08-07T08:12:09;1.73;;;1.37;;
2173;SDS011;1093;51.424;11.764;2023-08-07T08:14:36;3.07;;;1.73;;
2173;SDS011;1093;51.424;11.764;2023-08-07T08:17:03;4.33;;;2.57;;
2173;SDS011;1093;51.424;11.764;2023-08-07T08:19:30;3.97;;;1.60;;
2173;SDS011;1093;51.424;11.764;2023-08-07T08:21:57;5.23;;;1.53;;
2173;SDS011;1093;51.424;11.764;2023-08-07T08:24:24;2.77;;;1.40;;
2173;SDS011;1093;51.424;11.764;2023-08-07T08:26:51;2.23;;;1.53;;
2173;SDS011;1093;51.424;11.764;2023-08-07T08:29:19;3.73;;;2.30;;
2173;SDS011;1093;51.424;11.764;2023-08-07T08:31:46;2.93;;;1.80;;
2173;SDS011;1093;51.424;11.764;2023-08-07T08:34:13;2.57;;;1.30;;
2173;SDS011;1093;51.424;11.764;2023-08-07T08:36:39;2.30;;;1.93;;
2173;SDS011;1093;51.424;11.764;2023-08-07T08:39:06;3.20;;;1.63;;
2173;SDS011;1093;51.424;11.764;2023-08-07T08:41:33;5.00;;;1.73;;
2173;SDS011;1093;51.424;11.764;2023-08-07T08:44:01;6.50;;;2.00;;
2173;SDS011;1093;51.424;11.764;2023-08-07T08:46:30;2.70;;;1.40;;
2173;SDS011;1093;51.424;11.764;2023-08-07T08:48:59;2.30;;;2.07;;
2173;SDS011;1093;51.424;11.764;2023-08-07T08:51:30;2.00;;;1.40;;
2173;SDS011;1093;51.424;11.764;2023-08-07T08:53:57;1.93;;;1.33;;
2173;SDS011;1093;51.424;11.764;2023-08-07T08:56:27;1.93;;;1.67;;
2173;SDS011;1093;51.424;11.764;2023-08-07T08:58:54;2.90;;;1.70;;
2173;SDS011;1093;51.424;11.764;2023-08-07T09:01:22;1.83;;;1.07;;
2173;SDS011;1093;51.424;11.764;2023-08-07T09:03:53;2.17;;;1.70;;
2173;SDS011;1093;51.424;11.764;2023-08-07T09:06:20;2.07;;;1.27;;
2173;SDS011;1093;51.424;11.764;2023-08-07T09:08:47;2.03;;;1.30;;
2173;SDS011;1093;51.424;11.764;2023-08-07T09:11:15;2.60;;;0.97;;
2173;SDS011;1093;51.424;11.764;2023-08-07T09:13:42;3.67;;;1.90;;
2173;SDS011;1093;51.424;11.764;2023-08-07T09:16:11;6.30;;;1.80;;
2173;SDS011;1093;51.424;11.764;2023-08-07T09:18:38;7.10;;;1.63;;
2173;SDS011;1093;51.424;11.764;2023-08-07T09:21:06;2.43;;;1.63;;
2173;SDS011;1093;51.424;11.764;2023-08-07T09:23:33;3.53;;;1.30;;
2173;SDS011;1093;51.424;11.764;2023-08-07T09:26:00;3.43;;;1.63;;
2173;SDS011;1093;51.424;11.764;2023-08-07T09:28:28;4.03;;;1.20;;
2173;SDS011;1093;51.424;11.764;2023-08-07T09:30:56;3.60;;;1.40;;
2173;SDS011;1093;51.424;11.764;2023-08-07T09:33:25;1.23;;;1.10;;
2173;SDS011;1093;51.424;11.764;2023-08-07T09:35:53;1.17;;;1.07;;
2173;SDS011;1093;51.424;11.764;2023-08-07T09:38:26;1.13;;;1.00;;
2173;SDS011;1093;51.424;11.764;2023-08-07T09:40:56;1.07;;;0.97;;
2173;SDS011;1093;51.424;11.764;2023-08-07T09:43:23;1.90;;;1.10;;
2173;SDS011;1093;51.424;11.764;2023-08-07T09:45:50;0.80;;;0.70;;
2173;SDS011;1093;51.424;11.764;2023-08-07T09:48:20;1.63;;;1.10;;
2173;SDS011;1093;51.424;11.764;2023-08-07T09:50:49;1.33;;;1.23;;
2173;SDS011;1093;51.424;11.764;2023-08-07T09:53:16;2.90;;;1.27;;
2173;SDS011;1093;51.424;11.764;2023-08-07T09:55:44;1.20;;;1.10;;
2173;SDS011;1093;51.424;11.764;2023-08-07T09:58:11;2.20;;;1.30;;
2173;SDS011;1093;51.424;11.764;2023-08-07T10:00:39;2.80;;;1.47;;
2173;SDS011;1093;51.424;11.764;2023-08-07T10:03:07;4.50;;;1.43;;
2173;SDS011;1093;51.424;11.764;2023-08-07T10:05:34;3.33;;;1.03;;
2173;SDS011;1093;51.424;11.764;2023-08-07T10:08:01;2.93;;;1.50;;
2173;SDS011;1093;51.424;11.764;2023-08-07T10:10:29;1.43;;;0.93;;
2173;SDS011;1093;51.424;11.764;2023-08-07T10:13:00;1.50;;;1.30;;
2173;SDS011;1093;51.424;11.764;2023-08-07T10:15:27;1.70;;;1.37;;
2173;SDS011;1093;51.424;11.764;2023-08-07T10:17:55;2.70;;;1.30;;
2173;SDS011;1093;51.424;11.764;2023-08-07T10:20:22;10.83;;;1.87;;
2173;SDS011;1093;51.424;11.764;2023-08-07T10:22:50;3.13;;;1.70;;
2173;SDS011;1093;51.424;11.764;2023-08-07T10:25:19;5.57;;;1.63;;
2173;SDS011;1093;51.424;11.764;2023-08-07T10:27:49;2.37;;;1.50;;
2173;SDS011;1093;51.424;11.764;2023-08-07T10:30:19;5.13;;;1.67;;
2173;SDS011;1093;51.424;11.764;2023-08-07T10:32:48;1.40;;;1.30;;
2173;SDS011;1093;51.424;11.764;2023-08-07T10:35:23;1.57;;;1.33;;
2173;SDS011;1093;51.424;11.764;2023-08-07T10:37:51;4.60;;;2.00;;
2173;SDS011;1093;51.424;11.764;2023-08-07T10:40:19;4.60;;;1.40;;
2173;SDS011;1093;51.424;11.764;2023-08-07T10:42:51;4.80;;;3.10;;
2173;SDS011;1093;51.424;11.764;2023-08-07T10:45:23;3.63;;;1.10;;
2173;SDS011;1093;51.424;11.764;2023-08-07T10:48:00;1.10;;;0.90;;
2173;SDS011;1093;51.424;11.764;2023-08-07T10:50:49;2.20;;;1.20;;
2173;SDS011;1093;51.424;11.764;2023-08-07T10:53:21;2.40;;;1.50;;
2173;SDS011;1093;51.424;11.764;2023-08-07T10:55:55;2.83;;;1.43;;
2173;SDS011;1093;51.424;11.764;2023-08-07T10:58:23;12.33;;;2.10;;
2173;SDS011;1093;51.424;11.764;2023-08-07T11:00:52;2.97;;;1.50;;
2173;SDS011;1093;51.424;11.764;2023-08-07T11:03:35;2.10;;;1.90;;
2173;SDS011;1093;51.424;11.764;2023-08-07T11:06:02;6.90;;;1.47;;
2173;SDS011;1093;51.424;11.764;2023-08-07T11:08:29;2.30;;;1.53;;
2173;SDS011;1093;51.424;11.764;2023-08-07T11:10:56;2.30;;;1.70;;
2173;SDS011;1093;51.424;11.764;2023-08-07T11:13:30;1.67;;;1.57;;
2173;SDS011;1093;51.424;11.764;2023-08-07T11:15:58;1.60;;;1.27;;
2173;SDS011;1093;51.424;11.764;2023-08-07T11:18:26;2.90;;;1.43;;
2173;SDS011;1093;51.424;11.764;2023-08-07T11:20:53;3.03;;;1.60;;
2173;SDS011;1093;51.424;11.764;2023-08-07T11:23:22;7.73;;;1.70;;
2173;SDS011;1093;51.424;11.764;2023-08-07T11:25:49;2.33;;;1.30;;
2173;SDS011;1093;51.424;11.764;2023-08-07T11:28:17;2.57;;;1.87;;
2173;SDS011;1093;51.424;11.764;2023-08-07T11:30:44;2.20;;;1.23;;
2173;SDS011;1093;51.424;11.764;2023-08-07T11:33:14;3.10;;;1.60;;
2173;SDS011;1093;51.424;11.764;2023-08-07T11:35:41;4.73;;;1.40;;
2173;SDS011;1093;51.424;11.764;2023-08-07T11:38:08;1.27;;;1.03;;
2173;SDS011;1093;51.424;11.764;2023-08-07T11:40:35;1.97;;;1.50;;
2173;SDS011;1093;51.424;11.764;2023-08-07T11:43:02;3.73;;;1.40;;
2173;SDS011;1093;51.424;11.764;2023-08-07T11:45:29;1.60;;;1.33;;
2173;SDS011;1093;51.424;11.764;2023-08-07T11:47:56;3.27;;;1.10;;
2173;SDS011;1093;51.424;11.764;2023-08-07T11:50:25;2.90;;;1.30;;
2173;SDS011;1093;51.424;11.764;2023-08-07T11:52:54;3.00;;;1.23;;
2173;SDS011;1093;51.424;11.764;2023-08-07T11:55:27;3.93;;;0.87;;
2173;SDS011;1093;51.424;11.764;2023-08-07T11:57:55;2.70;;;1.13;;
2173;SDS011;1093;51.424;11.764;2023-08-07T12:00:24;3.57;;;0.93;;
2173;SDS011;1093;51.424;11.764;2023-08-07T12:02:52;6.80;;;1.00;;
2173;SDS011;1093;51.424;11.764;2023-08-07T12:05:19;2.80;;;0.90;;
2173;SDS011;1093;51.424;11.764;2023-08-07T12:07:48;2.20;;;1.23;;
2173;SDS011;1093;51.424;11.764;2023-08-07T12:10:15;2.77;;;1.70;;
2173;SDS011;1093;51.424;11.764;2023-08-07T12:12:42;2.37;;;1.30;;
2173;SDS011;1093;51.424;11.764;2023-08-07T12:15:10;4.70;;;1.17;;
2173;SDS011;1093;51.424;11.764;2023-08-07T12:17:37;1.60;;;1.30;;
2173;SDS011;1093;51.424;11.764;2023-08-07T12:20:04;2.60;;;1.30;;
2173;SDS011;1093;51.424;11.764;2023-08-07T12:22:35;1.37;;;1.17;;
2173;SDS011;1093;51.424;11.764;2023-08-07T12:25:04;3.57;;;1.43;;
2173;SDS011;1093;51.424;11.764;2023-08-07T12:27:31;2.60;;;1.00;;
2173;SDS011;1093;51.424;11.764;2023-08-07T12:29:58;1.70;;;1.10;;
2173;SDS011;1093;51.424;11.764;2023-08-07T12:32:24;1.27;;;1.17;;
2173;SDS011;1093;51.424;11.764;2023-08-07T12:34:51;3.73;;;1.30;;
2173;SDS011;1093;51.424;11.764;2023-08-07T12:37:18;1.30;;;0.90;;
2173;SDS011;1093;51.424;11.764;2023-08-07T12:39:45;3.13;;;1.50;;
2173;SDS011;1093;51.424;11.764;2023-08-07T12:42:13;1.03;;;0.90;;
2173;SDS011;1093;51.424;11.764;2023-08-07T12:44:40;1.90;;;0.80;;
2173;SDS011;1093;51.424;11.764;2023-08-07T12:47:08;2.10;;;0.80;;
2173;SDS011;1093;51.424;11.764;2023-08-07T12:49:35;0.90;;;0.70;;
2173;SDS011;1093;51.424;11.764;2023-08-07T12:52:02;0.97;;;0.87;;
2173;SDS011;1093;51.424;11.764;2023-08-07T12:54:29;3.03;;;1.00;;
2173;SDS011;1093;51.424;11.764;2023-08-07T12:56:55;3.67;;;1.70;;
2173;SDS011;1093;51.424;11.764;2023-08-07T12:59:24;1.93;;;1.27;;
2173;SDS011;1093;51.424;11.764;2023-08-07T13:01:51;2.43;;;1.07;;
2173;SDS011;1093;51.424;11.764;2023-08-07T13:04:19;2.87;;;1.10;;
2173;SDS011;1093;51.424;11.764;2023-08-07T13:06:46;4.60;;;1.20;;
2173;SDS011;1093;51.424;11.764;2023-08-07T13:09:14;2.17;;;0.97;;
2173;SDS011;1093;51.424;11.764;2023-08-07T13:11:41;3.83;;;0.90;;
2173;SDS011;1093;51.424;11.764;2023-08-07T13:14:08;4.23;;;1.30;;
2173;SDS011;1093;51.424;11.764;2023-08-07T13:16:36;5.60;;;1.00;;
2173;SDS011;1093;51.424;11.764;2023-08-07T13:19:03;6.30;;;1.47;;
2173;SDS011;1093;51.424;11.764;2023-08-07T13:21:29;1.50;;;1.13;;
2173;SDS011;1093;51.424;11.764;2023-08-07T13:23:56;3.63;;;1.50;;
2173;SDS011;1093;51.424;11.764;2023-08-07T13:26:23;6.27;;;2.20;;
2173;SDS011;1093;51.424;11.764;2023-08-07T13:28:50;2.77;;;1.30;;
2173;SDS011;1093;51.424;11.764;2023-08-07T13:31:17;1.33;;;1.10;;
2173;SDS011;1093;51.424;11.764;2023-08-07T13:33:45;4.53;;;1.50;;
2173;SDS011;1093;51.424;11.764;2023-08-07T13:36:11;2.53;;;1.67;;
2173;SDS011;1093;51.424;11.764;2023-08-07T13:38:38;2.07;;;1.40;;
2173;SDS011;1093;51.424;11.764;2023-08-07T13:41:05;1.37;;;1.27;;
2173;SDS011;1093;51.424;11.764;2023-08-07T13:43:32;1.60;;;1.50;;
2173;SDS011;1093;51.424;11.764;2023-08-07T13:45:59;3.40;;;1.23;;
2173;SDS011;1093;51.424;11.764;2023-08-07T13:48:26;14.00;;;2.47;;
2173;SDS011;1093;51.424;11.764;2023-08-07T13:50:54;2.70;;;1.37;;
2173;SDS011;1093;51.424;11.764;2023-08-07T13:53:21;5.90;;;2.00;;
2173;SDS011;1093;51.424;11.764;2023-08-07T13:55:49;4.87;;;1.70;;
2173;SDS011;1093;51.424;11.764;2023-08-07T13:58:15;4.70;;;2.30;;
2173;SDS011;1093;51.424;11.764;2023-08-07T14:00:43;6.87;;;1.90;;
2173;SDS011;1093;51.424;11.764;2023-08-07T14:03:10;4.20;;;1.60;;
2173;SDS011;1093;51.424;11.764;2023-08-07T14:05:37;6.27;;;1.83;;
2173;SDS011;1093;51.424;11.764;2023-08-07T14:08:06;2.90;;;1.27;;
2173;SDS011;1093;51.424;11.764;2023-08-07T14:10:35;6.00;;;1.53;;
2173;SDS011;1093;51.424;11.764;2023-08-07T14:13:05;3.07;;;1.23;;
2173;SDS011;1093;51.424;11.764;2023-08-07T14:15:32;6.17;;;1.70;;
2173;SDS011;1093;51.424;11.764;2023-08-07T14:17:59;3.17;;;1.80;;
2173;SDS011;1093;51.424;11.764;2023-08-07T14:20:26;2.27;;;1.53;;
2173;SDS011;1093;51.424;11.764;2023-08-07T14:22:53;3.93;;;1.37;;
2173;SDS011;1093;51.424;11.764;2023-08-07T14:25:22;1.80;;;1.40;;
2173;SDS011;1093;51.424;11.764;2023-08-07T14:27:49;6.87;;;1.57;;
2173;SDS011;1093;51.424;11.764;2023-08-07T14:30:16;4.47;;;1.70;;
2173;SDS011;1093;51.424;11.764;2023-08-07T14:32:44;6.97;;;1.93;;
2173;SDS011;1093;51.424;11.764;2023-08-07T14:35:12;2.90;;;1.30;;
2173;SDS011;1093;51.424;11.764;2023-08-07T14:37:39;2.10;;;1.40;;
2173;SDS011;1093;51.424;11.764;2023-08-07T14:40:07;1.67;;;1.00;;
2173;SDS011;1093;51.424;11.764;2023-08-07T14:42:35;2.80;;;1.10;;
2173;SDS011;1093;51.424;11.764;2023-08-07T14:45:03;1.93;;;1.40;;
2173;SDS011;1093;51.424;11.764;2023-08-07T14:47:30;2.20;;;1.23;;
2173;SDS011;1093;51.424;11.764;2023-08-07T14:49:57;2.07;;;1.40;;
2173;SDS011;1093;51.424;11.764;2023-08-07T14:52:24;2.67;;;1.43;;
2173;SDS011;1093;51.424;11.764;2023-08-07T14:54:51;2.00;;;1.10;;
2173;SDS011;1093;51.424;11.764;2023-08-07T14:57:18;3.43;;;1.60;;
2173;SDS011;1093;51.424;11.764;2023-08-07T14:59:46;3.90;;;1.30;;
2173;SDS011;1093;51.424;11.764;2023-08-07T15:02:13;1.90;;;1.17;;
2173;SDS011;1093;51.424;11.764;2023-08-07T15:04:40;2.13;;;1.20;;
2173;SDS011;1093;51.424;11.764;2023-08-07T15:07:07;3.90;;;1.87;;
2173;SDS011;1093;51.424;11.764;2023-08-07T15:09:33;1.30;;;1.03;;
2173;SDS011;1093;51.424;11.764;2023-08-07T15:12:00;8.20;;;1.73;;